createdAt,value
2018-03-29T00:00:00.201Z,71.47
2018-03-29T00:02:27.754Z,70.72
2018-03-29T00:04:55.288Z,65.80
2018-03-29T00:07:22.816Z,79.82
2018-03-29T00:09:50.365Z,76.57
2018-03-29T00:12:17.886Z,78.03
2018-03-29T00:14:45.444Z,75.53
2018-03-29T00:17:12.972Z,78.60
2018-03-29T00:19:40.496Z,60.15
2018-03-29T00:22:08.012Z,48.20
2018-03-29T00:24:35.764Z,53.65
2018-03-29T00:27:03.318Z,50.03
2018-03-29T00:29:30.841Z,44.58
2018-03-29T00:31:58.403Z,45.78
2018-03-29T00:34:25.919Z,47.55
2018-03-29T00:36:53.444Z,47.83
2018-03-29T00:39:20.960Z,41.97
2018-03-29T00:41:48.479Z,39.97
2018-03-29T00:44:16.014Z,35.95
2018-03-29T00:46:44.408Z,36.20
2018-03-29T00:49:11.941Z,39.55
2018-03-29T00:51:39.461Z,38.70
2018-03-29T00:54:06.979Z,38.95
2018-03-29T00:56:34.647Z,39.72
2018-03-29T00:59:02.163Z,43.33
2018-03-29T01:01:29.702Z,41.63
2018-03-29T01:03:57.448Z,42.50
2018-03-29T01:06:24.987Z,45.58
2018-03-29T01:08:52.505Z,47.42
2018-03-29T01:11:20.036Z,40.67
2018-03-29T01:13:47.578Z,39.72
2018-03-29T01:16:15.095Z,38.38
2018-03-29T01:18:42.891Z,36.58
2018-03-29T01:21:10.759Z,34.92
2018-03-29T01:23:38.287Z,35.55
2018-03-29T01:26:05.833Z,41.22
2018-03-29T01:28:33.359Z,40.60
2018-03-29T01:31:00.922Z,33.70
2018-03-29T01:33:28.453Z,35.13
2018-03-29T01:35:55.987Z,34.95
2018-03-29T01:38:23.506Z,33.40
2018-03-29T01:40:51.026Z,35.53
2018-03-29T01:43:18.567Z,35.08
2018-03-29T01:45:46.083Z,34.22
2018-03-29T01:48:13.603Z,34.85
2018-03-29T01:50:41.115Z,34.85
2018-03-29T01:53:08.634Z,35.03
2018-03-29T01:55:36.175Z,33.95
2018-03-29T01:58:03.727Z,35.03
2018-03-29T02:00:31.257Z,34.90
2018-03-29T02:02:58.779Z,34.20
2018-03-29T02:05:26.300Z,32.65
2018-03-29T02:07:53.826Z,34.42
2018-03-29T02:10:21.345Z,34.17
2018-03-29T02:12:48.891Z,33.83
2018-03-29T02:15:16.407Z,35.88
2018-03-29T02:17:43.922Z,37.97
2018-03-29T02:20:11.438Z,38.50
2018-03-29T02:22:38.960Z,35.97
2018-03-29T02:25:06.519Z,37.22
2018-03-29T02:27:34.051Z,37.33
2018-03-29T02:30:01.568Z,37.53
2018-03-29T02:32:29.097Z,36.90
2018-03-29T02:34:56.618Z,35.00
2018-03-29T02:37:24.155Z,36.28
2018-03-29T02:39:51.679Z,36.92
2018-03-29T02:42:19.195Z,32.90
2018-03-29T02:44:46.720Z,38.72
2018-03-29T02:47:14.243Z,39.45
2018-03-29T02:49:41.827Z,38.67
2018-03-29T02:52:09.358Z,41.37
2018-03-29T02:54:36.881Z,37.08
2018-03-29T02:57:04.410Z,37.40
2018-03-29T02:59:31.931Z,36.15
2018-03-29T03:01:59.466Z,34.25
2018-03-29T03:04:26.984Z,33.15
2018-03-29T03:06:54.504Z,35.67
2018-03-29T03:09:22.037Z,34.05
2018-03-29T03:11:49.556Z,35.20
2018-03-29T03:14:17.103Z,34.33
2018-03-29T03:16:44.629Z,32.92
2018-03-29T03:19:12.151Z,35.22
2018-03-29T03:21:39.667Z,34.58
2018-03-29T03:24:07.184Z,32.90
2018-03-29T03:26:34.726Z,34.88
2018-03-29T03:29:02.246Z,34.35
2018-03-29T03:31:29.790Z,32.28
2018-03-29T03:33:57.308Z,34.72
2018-03-29T03:36:24.844Z,34.13
2018-03-29T03:38:52.423Z,32.72
2018-03-29T03:41:19.943Z,35.95
2018-03-29T03:43:47.476Z,36.00
2018-03-29T03:46:14.992Z,35.47
2018-03-29T03:48:42.526Z,34.38
2018-03-29T03:51:10.080Z,37.33
2018-03-29T03:53:37.606Z,35.08
2018-03-29T03:56:05.131Z,36.08
2018-03-29T03:58:32.647Z,35.63
2018-03-29T04:01:00.177Z,35.97
2018-03-29T04:03:27.699Z,35.55
2018-03-29T04:05:55.251Z,37.15
2018-03-29T04:08:22.767Z,36.75
2018-03-29T04:10:50.283Z,37.53
2018-03-29T04:13:17.810Z,37.25
2018-03-29T04:15:45.327Z,37.03
2018-03-29T04:18:12.878Z,36.92
2018-03-29T04:20:40.483Z,35.88
2018-03-29T04:23:07.998Z,36.38
2018-03-29T04:25:35.515Z,35.00
2018-03-29T04:28:03.040Z,35.85
2018-03-29T04:30:30.594Z,35.90
2018-03-29T04:32:58.143Z,33.00
2018-03-29T04:35:26.236Z,34.00
2018-03-29T04:37:53.759Z,35.90
2018-03-29T04:40:21.319Z,37.20
2018-03-29T04:42:48.863Z,35.35
2018-03-29T04:45:16.387Z,35.65
2018-03-29T04:47:43.918Z,34.75
2018-03-29T04:50:11.434Z,33.58
2018-03-29T04:52:38.951Z,34.97
2018-03-29T04:55:06.516Z,33.63
2018-03-29T04:57:34.059Z,32.03
2018-03-29T05:00:01.618Z,30.58
2018-03-29T05:02:29.164Z,30.05
2018-03-29T05:04:56.686Z,29.35
2018-03-29T05:07:24.211Z,29.40
2018-03-29T05:09:51.735Z,29.42
2018-03-29T05:12:19.280Z,28.37
2018-03-29T05:14:46.818Z,28.63
2018-03-29T05:17:14.338Z,27.80
2018-03-29T05:19:41.850Z,27.00
2018-03-29T05:22:09.387Z,25.73
2018-03-29T05:24:36.906Z,26.67
2018-03-29T05:27:04.469Z,29.00
2018-03-29T05:29:31.983Z,30.77
2018-03-29T05:31:59.527Z,33.53
2018-03-29T05:34:27.051Z,35.37
2018-03-29T05:36:54.628Z,34.23
2018-03-29T05:39:22.151Z,36.00
2018-03-29T05:41:49.687Z,37.33
2018-03-29T05:44:17.223Z,38.70
2018-03-29T05:46:44.747Z,38.60
2018-03-29T05:49:12.279Z,35.67
2018-03-29T05:51:39.796Z,37.83
2018-03-29T05:54:07.355Z,38.60
2018-03-29T05:56:34.923Z,40.50
2018-03-29T05:59:02.434Z,42.07
2018-03-29T06:01:29.988Z,41.47
2018-03-29T06:03:57.539Z,41.20
2018-03-29T06:06:25.063Z,41.07
2018-03-29T06:08:52.578Z,39.80
2018-03-29T06:11:20.096Z,38.67
2018-03-29T06:16:47.043Z,38.17
2018-03-29T06:19:14.588Z,41.47
2018-03-29T06:21:42.123Z,40.40
2018-03-29T06:24:09.667Z,41.07
2018-03-29T06:26:37.194Z,40.53
2018-03-29T06:29:04.731Z,39.20
2018-03-29T06:31:32.292Z,41.50
2018-03-29T06:33:59.825Z,38.97
2018-03-29T06:36:27.355Z,35.03
2018-03-29T06:38:55.008Z,36.77
2018-03-29T06:41:22.524Z,35.00
2018-03-29T06:43:50.052Z,35.63
2018-03-29T06:46:17.597Z,35.43
2018-03-29T06:48:45.127Z,36.10
2018-03-29T06:51:12.655Z,34.37
2018-03-29T06:53:40.183Z,39.20
2018-03-29T06:56:07.718Z,36.87
2018-03-29T06:58:35.267Z,36.47
2018-03-29T07:01:02.855Z,38.20
2018-03-29T07:03:30.366Z,38.13
2018-03-29T07:05:57.911Z,38.33
2018-03-29T07:08:25.474Z,37.33
2018-03-29T07:10:53.020Z,36.33
2018-03-29T07:13:20.559Z,36.70
2018-03-29T07:15:48.083Z,34.70
2018-03-29T07:18:15.640Z,36.20
2018-03-29T07:20:43.158Z,38.70
2018-03-29T07:23:10.683Z,37.00
2018-03-29T07:25:38.251Z,36.67
2018-03-29T07:28:05.778Z,36.23
2018-03-29T07:30:33.358Z,36.30
2018-03-29T07:33:00.888Z,36.37
2018-03-29T07:35:28.410Z,41.27
2018-03-29T07:37:55.931Z,39.80
2018-03-29T07:40:23.486Z,38.63
2018-03-29T07:42:51.036Z,36.13
2018-03-29T07:45:18.569Z,37.30
2018-03-29T07:47:46.099Z,40.40
2018-03-29T07:50:13.625Z,40.90
2018-03-29T07:52:41.231Z,36.40
2018-03-29T07:55:08.763Z,39.93
2018-03-29T07:57:36.289Z,40.10
2018-03-29T08:00:05.743Z,39.10
2018-03-29T08:02:33.269Z,40.67
2018-03-29T08:05:00.793Z,38.80
2018-03-29T08:07:28.371Z,38.33
2018-03-29T08:09:55.906Z,35.33
2018-03-29T08:12:23.463Z,35.43
2018-03-29T08:14:50.991Z,34.03
2018-03-29T08:17:18.519Z,34.70
2018-03-29T08:19:46.044Z,37.27
2018-03-29T08:22:13.595Z,35.07
2018-03-29T08:24:41.135Z,33.50
2018-03-29T08:27:08.663Z,33.17
2018-03-29T08:29:36.193Z,34.70
2018-03-29T08:32:03.722Z,34.60
2018-03-29T08:34:31.250Z,31.80
2018-03-29T08:36:58.858Z,36.43
2018-03-29T08:39:27.245Z,34.70
2018-03-29T08:41:54.834Z,34.13
2018-03-29T08:44:22.429Z,33.73
2018-03-29T08:46:50.957Z,36.00
2018-03-29T08:49:19.390Z,33.47
2018-03-29T08:51:47.884Z,34.07
2018-03-29T08:54:15.650Z,31.87
2018-03-29T08:56:46.221Z,33.17
2018-03-29T08:59:16.660Z,33.20
2018-03-29T09:01:45.084Z,32.57
2018-03-29T09:04:12.809Z,32.30
2018-03-29T09:06:41.797Z,32.10
2018-03-29T09:09:10.808Z,32.50
2018-03-29T09:11:39.291Z,31.23
2018-03-29T09:14:08.390Z,32.47
2018-03-29T09:16:35.916Z,33.57
2018-03-29T09:19:03.514Z,33.17
2018-03-29T09:21:31.033Z,34.17
2018-03-29T09:23:58.554Z,33.00
2018-03-29T09:26:26.085Z,32.37
2018-03-29T09:28:53.898Z,29.17
2018-03-29T09:31:21.461Z,29.00
2018-03-29T09:33:48.991Z,27.60
2018-03-29T09:36:16.511Z,25.13
2018-03-29T09:38:44.030Z,25.47
2018-03-29T09:41:11.560Z,26.70
2018-03-29T09:43:39.065Z,25.47
2018-03-29T09:46:06.647Z,23.13
2018-03-29T09:48:35.047Z,21.23
2018-03-29T09:51:02.584Z,23.40
2018-03-29T09:53:30.116Z,22.87
2018-03-29T09:55:57.640Z,23.87
2018-03-29T09:58:25.165Z,23.30
2018-03-29T10:00:52.735Z,23.20
2018-03-29T10:03:23.130Z,21.37
2018-03-29T10:05:50.696Z,23.57
2018-03-29T10:08:18.259Z,24.97
2018-03-29T10:10:45.804Z,26.13
2018-03-29T10:13:13.346Z,23.63
2018-03-29T10:15:40.875Z,21.83
2018-03-29T10:18:08.431Z,20.13
2018-03-29T10:20:36.069Z,19.30
2018-03-29T10:23:03.603Z,19.83
2018-03-29T10:25:31.186Z,38.97
2018-03-29T10:27:58.710Z,24.07
2018-03-29T10:30:26.233Z,22.90
2018-03-29T10:32:53.787Z,23.30
2018-03-29T10:35:21.338Z,23.97
2018-03-29T10:37:48.856Z,23.17
2018-03-29T10:40:16.417Z,25.57
2018-03-29T10:42:43.950Z,22.70
2018-03-29T10:45:14.332Z,20.70
2018-03-29T10:47:41.970Z,17.02
2018-03-29T10:50:09.498Z,16.87
2018-03-29T10:52:37.031Z,17.48
2018-03-29T10:55:04.554Z,15.77
2018-03-29T10:57:32.079Z,15.82
2018-03-29T10:59:59.607Z,16.00
2018-03-29T11:02:27.126Z,16.37
2018-03-29T11:04:54.646Z,16.37
2018-03-29T11:07:22.180Z,14.27
2018-03-29T11:09:49.720Z,15.47
2018-03-29T11:12:17.287Z,12.98
2018-03-29T11:14:44.818Z,12.77
2018-03-29T11:17:12.336Z,11.82
2018-03-29T11:19:39.865Z,11.23
2018-03-29T11:22:07.407Z,12.60
2018-03-29T11:24:34.956Z,11.60
2018-03-29T11:27:02.495Z,11.00
2018-03-29T11:29:30.034Z,10.35
2018-03-29T11:31:57.564Z,10.77
2018-03-29T11:34:25.096Z,10.25
2018-03-29T11:36:52.608Z,8.75
2018-03-29T11:39:20.127Z,9.20
2018-03-29T11:41:47.640Z,8.20
2018-03-29T11:44:15.166Z,7.50
2018-03-29T11:46:42.705Z,9.93
2018-03-29T11:49:10.270Z,8.80
2018-03-29T11:51:37.793Z,10.87
2018-03-29T11:54:05.329Z,7.63
2018-03-29T11:56:32.872Z,7.93
2018-03-29T11:59:00.384Z,6.80
2018-03-29T12:01:27.981Z,7.60
2018-03-29T12:03:55.506Z,8.30
2018-03-29T12:06:23.018Z,8.67
2018-03-29T12:08:50.539Z,7.80
2018-03-29T12:11:18.082Z,9.37
2018-03-29T12:13:45.628Z,8.00
2018-03-29T12:16:13.151Z,8.27
2018-03-29T12:18:40.672Z,7.30
2018-03-29T12:21:08.195Z,8.43
2018-03-29T12:23:35.714Z,9.77
2018-03-29T12:26:03.222Z,7.83
2018-03-29T12:28:30.734Z,7.93
2018-03-29T12:30:58.287Z,9.20
2018-03-29T12:33:25.815Z,7.03
2018-03-29T12:35:53.360Z,6.53
2018-03-29T12:38:20.904Z,7.43
2018-03-29T12:40:48.430Z,8.60
2018-03-29T12:43:15.947Z,8.47
2018-03-29T12:45:43.462Z,7.03
2018-03-29T12:48:11.006Z,7.03
2018-03-29T12:50:39.308Z,7.47
2018-03-29T12:53:06.823Z,6.50
2018-03-29T12:55:42.086Z,6.13
2018-03-29T12:58:12.474Z,7.17
2018-03-29T13:00:40.026Z,6.07
2018-03-29T13:03:07.549Z,6.50
2018-03-29T13:05:35.079Z,7.17
2018-03-29T13:08:02.624Z,6.80
2018-03-29T13:10:30.179Z,6.80
2018-03-29T13:12:57.730Z,6.83
2018-03-29T13:15:25.237Z,6.57
2018-03-29T13:17:52.755Z,5.57
2018-03-29T13:20:20.286Z,5.33
2018-03-29T13:22:47.801Z,6.37
2018-03-29T13:25:15.324Z,4.90
2018-03-29T13:27:42.852Z,5.60
2018-03-29T13:30:10.407Z,4.60
2018-03-29T13:32:37.928Z,4.40
2018-03-29T13:35:05.477Z,4.30
2018-03-29T13:37:33.030Z,4.63
2018-03-29T13:40:00.560Z,4.60
2018-03-29T13:42:28.102Z,4.60
2018-03-29T13:44:55.623Z,5.73
2018-03-29T13:47:23.134Z,5.10
2018-03-29T13:49:50.643Z,4.57
2018-03-29T13:52:18.159Z,4.53
2018-03-29T13:54:45.745Z,4.17
2018-03-29T13:57:13.271Z,4.10
2018-03-29T13:59:40.814Z,3.60
2018-03-29T14:02:08.333Z,3.87
2018-03-29T14:04:35.867Z,4.03
2018-03-29T14:07:03.374Z,4.23
2018-03-29T14:09:30.892Z,4.80
2018-03-29T14:11:58.439Z,4.23
2018-03-29T14:14:25.995Z,3.70
2018-03-29T14:16:53.486Z,4.40
2018-03-29T14:19:20.998Z,4.40
2018-03-29T14:21:48.515Z,3.80
2018-03-29T14:24:16.064Z,4.60
2018-03-29T14:26:43.590Z,4.80
2018-03-29T14:29:11.138Z,5.07
2018-03-29T14:31:38.671Z,6.10
2018-03-29T14:34:06.193Z,5.03
2018-03-29T14:36:33.730Z,4.43
2018-03-29T14:39:01.267Z,4.30
2018-03-29T14:41:28.883Z,4.67
2018-03-29T14:43:56.379Z,4.90
2018-03-29T14:46:23.910Z,4.40
2018-03-29T14:48:51.426Z,3.60
2018-03-29T14:51:18.928Z,4.10
2018-03-29T14:53:46.466Z,4.33
2018-03-29T14:56:13.973Z,4.50
2018-03-29T14:58:41.507Z,4.73
2018-03-29T15:01:09.072Z,5.53
2018-03-29T15:03:36.573Z,3.93
2018-03-29T15:06:04.077Z,5.13
2018-03-29T15:08:32.253Z,3.73
2018-03-29T15:10:59.766Z,4.77
2018-03-29T15:13:27.297Z,4.40
2018-03-29T15:15:54.793Z,4.60
2018-03-29T15:18:22.348Z,5.07
2018-03-29T15:20:49.856Z,4.60
2018-03-29T15:23:17.348Z,4.53
2018-03-29T15:25:44.880Z,5.17
2018-03-29T15:28:12.396Z,6.90
2018-03-29T15:30:39.969Z,4.50
2018-03-29T15:33:07.454Z,5.50
2018-03-29T15:35:34.998Z,5.20
2018-03-29T15:38:02.500Z,4.93
2018-03-29T15:40:30.009Z,5.20
2018-03-29T15:42:57.537Z,5.57
2018-03-29T15:45:25.041Z,5.67
2018-03-29T15:47:52.538Z,7.00
2018-03-29T15:50:20.037Z,8.03
2018-03-29T15:52:47.533Z,8.90
2018-03-29T15:55:15.072Z,9.90
2018-03-29T15:57:42.608Z,8.43
2018-03-29T16:00:10.139Z,8.43
2018-03-29T16:02:37.646Z,10.77
2018-03-29T16:05:05.156Z,12.23
2018-03-29T16:07:32.662Z,12.73
2018-03-29T16:10:00.180Z,12.23
2018-03-29T16:12:27.718Z,12.60
2018-03-29T16:14:55.317Z,15.17
2018-03-29T16:17:22.820Z,13.63
2018-03-29T16:19:50.328Z,14.60
2018-03-29T16:22:17.848Z,15.13
2018-03-29T16:24:45.392Z,15.07
2018-03-29T16:27:12.905Z,17.10
2018-03-29T16:29:40.470Z,16.13
2018-03-29T16:32:08.038Z,14.93
2018-03-29T16:34:35.556Z,10.50
2018-03-29T16:37:03.106Z,12.33
2018-03-29T16:39:30.621Z,9.57
2018-03-29T16:41:58.137Z,11.87
2018-03-29T16:44:25.649Z,13.47
2018-03-29T16:46:53.161Z,20.30
2018-03-29T16:49:20.709Z,15.97
2018-03-29T16:51:48.217Z,16.17
2018-03-29T16:54:15.776Z,13.97
2018-03-29T16:56:43.285Z,16.37
2018-03-29T16:59:10.929Z,17.43
2018-03-29T17:01:38.481Z,17.97
2018-03-29T17:04:05.985Z,19.17
2018-03-29T17:06:33.499Z,21.20
2018-03-29T17:09:01.038Z,18.97
2018-03-29T17:11:28.553Z,16.53
2018-03-29T17:13:56.138Z,20.87
2018-03-29T17:16:23.654Z,16.33
2018-03-29T17:18:51.175Z,18.67
2018-03-29T17:21:18.681Z,24.33
2018-03-29T17:23:46.262Z,20.33
2018-03-29T17:26:13.805Z,21.30
2018-03-29T17:28:41.309Z,25.43
2018-03-29T17:31:08.952Z,28.00
2018-03-29T17:33:36.456Z,32.90
2018-03-29T17:36:03.988Z,33.77
2018-03-29T17:38:31.529Z,43.10
2018-03-29T17:40:59.033Z,41.83
2018-03-29T17:43:26.581Z,45.87
2018-03-29T17:45:54.113Z,70.03
2018-03-29T17:48:21.624Z,68.77
2018-03-29T17:50:49.147Z,81.33
2018-03-29T17:53:16.653Z,82.13
2018-03-29T17:55:44.165Z,86.43
2018-03-29T17:58:11.697Z,87.13
2018-03-29T18:00:39.212Z,92.90
2018-03-29T18:03:06.725Z,84.73
2018-03-29T18:05:34.284Z,59.33
2018-03-29T18:08:01.805Z,61.23
2018-03-29T18:10:29.314Z,54.77
2018-03-29T18:12:56.829Z,44.60
2018-03-29T18:15:24.358Z,31.77
2018-03-29T18:17:51.897Z,35.40
2018-03-29T18:20:19.452Z,41.20
2018-03-29T18:22:46.961Z,30.57
2018-03-29T18:25:14.477Z,33.37
2018-03-29T18:27:41.997Z,39.77
2018-03-29T18:30:09.544Z,38.73
2018-03-29T18:32:37.061Z,40.80
2018-03-29T18:35:04.575Z,40.43
2018-03-29T18:37:32.140Z,46.57
2018-03-29T18:39:59.648Z,49.03
2018-03-29T18:42:27.190Z,55.50
2018-03-29T18:44:54.702Z,53.80
2018-03-29T18:47:22.209Z,48.73
2018-03-29T18:49:49.718Z,52.47
2018-03-29T18:52:18.206Z,48.17
2018-03-29T18:54:45.710Z,35.13
2018-03-29T18:57:13.224Z,30.23
2018-03-29T18:59:40.805Z,33.60
2018-03-29T19:02:08.316Z,30.47
2018-03-29T19:04:35.923Z,26.33
2018-03-29T19:07:03.436Z,22.43
2018-03-29T19:09:30.944Z,24.93
2018-03-29T19:11:58.480Z,17.93
2018-03-29T19:14:26.060Z,18.00
2018-03-29T19:16:54.475Z,18.00
2018-03-29T19:19:22.038Z,19.40
2018-03-29T19:21:51.852Z,17.50
2018-03-29T19:24:19.491Z,21.27
2018-03-29T19:26:46.997Z,18.63
2018-03-29T19:29:14.508Z,17.90
2018-03-29T19:31:42.018Z,20.17
2018-03-29T19:34:09.526Z,18.70
2018-03-29T19:36:37.490Z,18.10
2018-03-29T19:39:05.005Z,13.70
2018-03-29T19:41:33.284Z,18.90
2018-03-29T19:44:01.025Z,15.30
2018-03-29T19:48:57.746Z,14.93
2018-03-29T19:51:25.272Z,14.70
2018-03-29T19:53:52.846Z,13.27
2018-03-29T19:56:20.352Z,15.43
2018-03-29T19:58:47.929Z,13.13
2018-03-29T20:01:15.510Z,13.40
2018-03-29T20:03:43.023Z,12.20
2018-03-29T20:06:10.953Z,15.70
2018-03-29T20:08:38.460Z,15.60
2018-03-29T20:11:05.994Z,15.43
2018-03-29T20:13:33.559Z,16.70
2018-03-29T20:16:01.083Z,17.80
2018-03-29T20:18:28.601Z,17.20
2018-03-29T20:20:56.108Z,19.53
2018-03-29T20:23:23.612Z,19.83
2018-03-29T20:25:51.188Z,20.30
2018-03-29T20:28:18.703Z,18.70
2018-03-29T20:30:46.273Z,21.07
2018-03-29T20:33:13.871Z,16.20
2018-03-29T20:35:41.385Z,21.13
2018-03-29T20:38:08.893Z,22.33
2018-03-29T20:40:36.401Z,19.87
2018-03-29T20:43:04.009Z,17.77
2018-03-29T20:45:31.787Z,20.47
2018-03-29T20:47:59.296Z,16.93
2018-03-29T20:50:26.808Z,15.67
2018-03-29T20:52:54.338Z,17.43
2018-03-29T20:55:21.889Z,15.60
2018-03-29T20:57:49.398Z,12.87
2018-03-29T21:00:16.962Z,14.90
2018-03-29T21:02:45.274Z,15.40
2018-03-29T21:05:12.793Z,15.63
2018-03-29T21:07:40.304Z,16.87
2018-03-29T21:10:07.812Z,16.07
2018-03-29T21:12:35.346Z,15.20
2018-03-29T21:15:02.852Z,14.63
2018-03-29T21:17:30.356Z,16.23
2018-03-29T21:19:57.889Z,16.47
2018-03-29T21:22:25.393Z,19.87
2018-03-29T21:24:52.900Z,20.20
2018-03-29T21:27:20.432Z,19.97
2018-03-29T21:29:47.940Z,20.77
2018-03-29T21:32:15.464Z,19.77
2018-03-29T21:34:42.973Z,17.20
2018-03-29T21:37:10.472Z,15.00
2018-03-29T21:39:38.036Z,16.17
2018-03-29T21:42:05.549Z,18.33
2018-03-29T21:44:33.117Z,17.43
2018-03-29T21:47:00.625Z,18.10
2018-03-29T21:49:28.136Z,17.63
2018-03-29T21:51:55.900Z,19.33
2018-03-29T21:54:23.400Z,19.67
2018-03-29T21:56:51.540Z,19.50
2018-03-29T21:59:19.054Z,20.00
2018-03-29T22:01:46.597Z,18.70
2018-03-29T22:04:14.097Z,16.13
2018-03-29T22:06:41.598Z,17.27
2018-03-29T22:09:09.108Z,14.03
2018-03-29T22:11:36.655Z,16.43
2018-03-29T22:14:04.190Z,14.03
2018-03-29T22:16:31.705Z,16.33
2018-03-29T22:18:59.214Z,17.87
2018-03-29T22:21:26.734Z,16.80
2018-03-29T22:23:54.254Z,17.53
2018-03-29T22:26:21.838Z,14.27
2018-03-29T22:28:49.309Z,15.10
2018-03-29T22:31:16.869Z,15.30
2018-03-29T22:33:44.431Z,16.30
2018-03-29T22:36:11.946Z,16.90
2018-03-29T22:38:39.513Z,15.87
2018-03-29T22:41:07.075Z,12.27
2018-03-29T22:43:34.634Z,11.83
2018-03-29T22:46:02.145Z,11.70
2018-03-29T22:48:29.682Z,11.90
2018-03-29T22:50:57.185Z,10.67
2018-03-29T22:53:24.713Z,8.97
2018-03-29T22:55:52.253Z,9.67
2018-03-29T22:58:19.757Z,10.17
2018-03-29T23:00:47.319Z,10.10
2018-03-29T23:03:14.825Z,10.13
2018-03-29T23:05:42.321Z,8.67
2018-03-29T23:08:09.820Z,9.50
2018-03-29T23:10:37.320Z,10.50
2018-03-29T23:13:04.886Z,11.47
2018-03-29T23:15:32.388Z,10.90
2018-03-29T23:17:59.888Z,10.47
2018-03-29T23:20:27.388Z,9.50
2018-03-29T23:22:55.128Z,10.35
2018-03-29T23:25:22.657Z,9.60
2018-03-29T23:27:50.156Z,10.20
2018-03-29T23:30:17.730Z,9.45
2018-03-29T23:32:45.241Z,8.75
2018-03-29T23:35:12.752Z,9.88
2018-03-29T23:37:40.268Z,10.20
2018-03-29T23:40:07.777Z,10.48
2018-03-29T23:42:35.345Z,10.73
2018-03-29T23:45:02.854Z,11.83
2018-03-29T23:47:30.595Z,11.87
2018-03-29T23:49:58.141Z,12.45
2018-03-29T23:52:25.644Z,11.70
2018-03-29T23:54:53.172Z,11.53
2018-03-29T23:57:20.694Z,11.55
2018-03-29T23:59:48.206Z,10.35
